sensor_id;sensor_type;location;lat;lon;timestamp;pressure;altitude;pressure_sealevel;temperature
40624;BMP280;26325;48.594;11.650;2022-09-09T00:00:41;96429.16;;;12.40
40624;BMP280;26325;48.594;11.650;2022-09-09T00:03:17;96432.28;;;12.42
40624;BMP280;26325;48.594;11.650;2022-09-09T00:08:12;96433.25;;;12.26
40624;BMP280;26325;48.594;11.650;2022-09-09T00:10:40;96429.13;;;12.30
40624;BMP280;26325;48.594;11.650;2022-09-09T00:13:29;96430.41;;;12.28
40624;BMP280;26325;48.594;11.650;2022-09-09T00:16:15;96426.56;;;12.35
40624;BMP280;26325;48.594;11.650;2022-09-09T00:19:37;96420.31;;;12.31
40624;BMP280;26325;48.594;11.650;2022-09-09T00:22:17;96417.69;;;12.17
40624;BMP280;26325;48.594;11.650;2022-09-09T00:24:45;96416.31;;;12.04
40624;BMP280;26325;48.594;11.650;2022-09-09T00:32:39;96405.66;;;11.96
40624;BMP280;26325;48.594;11.650;2022-09-09T00:35:21;96414.03;;;12.08
40624;BMP280;26325;48.594;11.650;2022-09-09T00:37:53;96409.41;;;12.19
40624;BMP280;26325;48.594;11.650;2022-09-09T00:43:44;96407.91;;;12.33
40624;BMP280;26325;48.594;11.650;2022-09-09T00:48:22;96403.94;;;12.11
40624;BMP280;26325;48.594;11.650;2022-09-09T00:51:17;96403.19;;;12.16
40624;BMP280;26325;48.594;11.650;2022-09-09T00:57:28;96409.03;;;11.97
40624;BMP280;26325;48.594;11.650;2022-09-09T01:11:26;96407.28;;;12.02
40624;BMP280;26325;48.594;11.650;2022-09-09T01:16:45;96403.06;;;11.91
40624;BMP280;26325;48.594;11.650;2022-09-09T01:19:18;96402.00;;;11.82
40624;BMP280;26325;48.594;11.650;2022-09-09T01:21:54;96391.88;;;11.81
40624;BMP280;26325;48.594;11.650;2022-09-09T01:24:31;96406.06;;;11.74
40624;BMP280;26325;48.594;11.650;2022-09-09T01:27:01;96398.31;;;11.69
40624;BMP280;26325;48.594;11.650;2022-09-09T01:29:27;96398.31;;;11.69
40624;BMP280;26325;48.594;11.650;2022-09-09T01:34:20;96394.22;;;11.82
40624;BMP280;26325;48.594;11.650;2022-09-09T01:39:30;96403.56;;;11.83
40624;BMP280;26325;48.594;11.650;2022-09-09T01:41:58;96402.00;;;11.82
40624;BMP280;26325;48.594;11.650;2022-09-09T01:44:24;96404.09;;;11.85
40624;BMP280;26325;48.594;11.650;2022-09-09T01:46:52;96403.13;;;12.01
40624;BMP280;26325;48.594;11.650;2022-09-09T01:49:20;96403.94;;;12.11
40624;BMP280;26325;48.594;11.650;2022-09-09T01:51:48;96408.09;;;12.12
40624;BMP280;26325;48.594;11.650;2022-09-09T01:54:14;96402.09;;;12.02
40624;BMP280;26325;48.594;11.650;2022-09-09T01:56:48;96408.25;;;11.91
40624;BMP280;26325;48.594;11.650;2022-09-09T01:59:45;96402.47;;;11.75
40624;BMP280;26325;48.594;11.650;2022-09-09T02:02:20;96394.72;;;11.75
40624;BMP280;26325;48.594;11.650;2022-09-09T02:04:48;96401.44;;;11.76
40624;BMP280;26325;48.594;11.650;2022-09-09T02:09:52;96406.19;;;11.98
40624;BMP280;26325;48.594;11.650;2022-09-09T02:12:20;96397.97;;;12.06
40624;BMP280;26325;48.594;11.650;2022-09-09T02:14:56;96409.34;;;12.05
40624;BMP280;26325;48.594;11.650;2022-09-09T02:17:27;96409.56;;;11.99
40624;BMP280;26325;48.594;11.650;2022-09-09T02:20:14;96407.16;;;11.82
40624;BMP280;26325;48.594;11.650;2022-09-09T02:22:41;96415.94;;;11.81
40624;BMP280;26325;48.594;11.650;2022-09-09T02:25:10;96399.91;;;11.80
40624;BMP280;26325;48.594;11.650;2022-09-09T02:27:37;96409.75;;;11.82
40624;BMP280;26325;48.594;11.650;2022-09-09T02:30:05;96404.03;;;11.76
40624;BMP280;26325;48.594;11.650;2022-09-09T02:32:31;96396.03;;;11.77
40624;BMP280;26325;48.594;11.650;2022-09-09T02:35:01;96390.06;;;11.77
40624;BMP280;26325;48.594;11.650;2022-09-09T02:37:31;96389.00;;;11.73
40624;BMP280;26325;48.594;11.650;2022-09-09T02:40:02;96383.28;;;11.71
40624;BMP280;26325;48.594;11.650;2022-09-09T02:42:27;96384.84;;;11.72
40624;BMP280;26325;48.594;11.650;2022-09-09T02:44:53;96376.13;;;11.82
40624;BMP280;26325;48.594;11.650;2022-09-09T02:47:27;96378.50;;;11.94
40624;BMP280;26325;48.594;11.650;2022-09-09T02:52:30;96381.41;;;12.07
40624;BMP280;26325;48.594;11.650;2022-09-09T02:55:04;96378.81;;;12.07
40624;BMP280;26325;48.594;11.650;2022-09-09T02:57:30;96375.69;;;12.05
40624;BMP280;26325;48.594;11.650;2022-09-09T02:59:57;96370.50;;;12.00
40624;BMP280;26325;48.594;11.650;2022-09-09T03:02:23;96379.03;;;12.00
40624;BMP280;26325;48.594;11.650;2022-09-09T03:04:49;96372.06;;;12.01
40624;BMP280;26325;48.594;11.650;2022-09-09T03:07:17;96373.09;;;12.00
40624;BMP280;26325;48.594;11.650;2022-09-09T03:09:45;96375.63;;;11.90
40624;BMP280;26325;48.594;11.650;2022-09-09T03:12:11;96362.94;;;11.89
40624;BMP280;26325;48.594;11.650;2022-09-09T03:14:37;96366.31;;;11.89
40624;BMP280;26325;48.594;11.650;2022-09-09T03:17:05;96371.47;;;11.89
40624;BMP280;26325;48.594;11.650;2022-09-09T03:19:34;96372.50;;;11.88
40624;BMP280;26325;48.594;11.650;2022-09-09T03:22:02;96375.91;;;11.94
40624;BMP280;26325;48.594;11.650;2022-09-09T03:24:29;96375.69;;;12.00
40624;BMP280;26325;48.594;11.650;2022-09-09T03:26:57;96379.84;;;12.01
40624;BMP280;26325;48.594;11.650;2022-09-09T03:29:22;96385.97;;;11.90
40624;BMP280;26325;48.594;11.650;2022-09-09T03:31:48;96378.75;;;11.92
40624;BMP280;26325;48.594;11.650;2022-09-09T03:34:18;96373.88;;;11.96
40624;BMP280;26325;48.594;11.650;2022-09-09T03:36:44;96373.09;;;12.05
40624;BMP280;26325;48.594;11.650;2022-09-09T03:39:09;96367.47;;;12.13
40624;BMP280;26325;48.594;11.650;2022-09-09T03:41:35;96378.34;;;12.19
40624;BMP280;26325;48.594;11.650;2022-09-09T03:44:02;96368.25;;;12.18
40624;BMP280;26325;48.594;11.650;2022-09-09T03:46:28;96373.13;;;12.15
40624;BMP280;26325;48.594;11.650;2022-09-09T03:48:53;96386.06;;;12.10
40624;BMP280;26325;48.594;11.650;2022-09-09T03:51:19;96375.97;;;12.03
40624;BMP280;26325;48.594;11.650;2022-09-09T03:53:44;96383.69;;;11.99
40624;BMP280;26325;48.594;11.650;2022-09-09T03:56:10;96379.84;;;12.01
40624;BMP280;26325;48.594;11.650;2022-09-09T03:58:38;96380.31;;;11.98
40624;BMP280;26325;48.594;11.650;2022-09-09T04:01:10;96365.88;;;12.02
40624;BMP280;26325;48.594;11.650;2022-09-09T04:03:35;96365.31;;;12.00
40624;BMP280;26325;48.594;11.650;2022-09-09T04:06:02;96365.31;;;12.00
40624;BMP280;26325;48.594;11.650;2022-09-09T04:08:29;96373.63;;;12.02
40624;BMP280;26325;48.594;11.650;2022-09-09T04:10:56;96372.59;;;12.08
40624;BMP280;26325;48.594;11.650;2022-09-09T04:13:23;96366.41;;;12.09
40624;BMP280;26325;48.594;11.650;2022-09-09T04:15:57;96370.06;;;12.13
40624;BMP280;26325;48.594;11.650;2022-09-09T04:18:24;96372.59;;;12.08
40624;BMP280;26325;48.594;11.650;2022-09-09T04:20:50;96371.78;;;11.98
40624;BMP280;26325;48.594;11.650;2022-09-09T04:23:16;96365.03;;;11.87
40624;BMP280;26325;48.594;11.650;2022-09-09T04:25:48;96368.91;;;11.89
40624;BMP280;26325;48.594;11.650;2022-09-09T04:28:15;96373.09;;;11.95
40624;BMP280;26325;48.594;11.650;2022-09-09T04:30:41;96371.56;;;12.04
40624;BMP280;26325;48.594;11.650;2022-09-09T04:33:09;96363.25;;;11.97
40624;BMP280;26325;48.594;11.650;2022-09-09T04:35:35;96366.88;;;12.01
40624;BMP280;26325;48.594;11.650;2022-09-09T04:38:01;96368.44;;;12.02
40624;BMP280;26325;48.594;11.650;2022-09-09T04:40:28;96371.28;;;12.00
40624;BMP280;26325;48.594;11.650;2022-09-09T04:42:57;96359.38;;;12.04
40624;BMP280;26325;48.594;11.650;2022-09-09T04:45:23;96365.31;;;12.00
40624;BMP280;26325;48.594;11.650;2022-09-09T04:47:48;96369.97;;;11.98
40624;BMP280;26325;48.594;11.650;2022-09-09T04:50:14;96364.00;;;11.98
40624;BMP280;26325;48.594;11.650;2022-09-09T04:52:40;96362.94;;;11.89
40624;BMP280;26325;48.594;11.650;2022-09-09T04:55:06;96361.13;;;11.84
40624;BMP280;26325;48.594;11.650;2022-09-09T04:57:32;96363.19;;;11.82
40624;BMP280;26325;48.594;11.650;2022-09-09T04:59:58;96368.84;;;11.80
40624;BMP280;26325;48.594;11.650;2022-09-09T05:02:26;96365.75;;;11.78
40624;BMP280;26325;48.594;11.650;2022-09-09T05:04:53;96371.66;;;11.73
40624;BMP280;26325;48.594;11.650;2022-09-09T05:07:19;96368.84;;;11.75
40624;BMP280;26325;48.594;11.650;2022-09-09T05:09:44;96374.56;;;11.81
40624;BMP280;26325;48.594;11.650;2022-09-09T05:12:10;96374.06;;;11.89
40624;BMP280;26325;48.594;11.650;2022-09-09T05:14:36;96377.97;;;11.97
40624;BMP280;26325;48.594;11.650;2022-09-09T05:17:03;96376.88;;;11.78
40624;BMP280;26325;48.594;11.650;2022-09-09T05:19:28;96387.50;;;11.81
40624;BMP280;26325;48.594;11.650;2022-09-09T05:21:54;96382.88;;;11.88
40624;BMP280;26325;48.594;11.650;2022-09-09T05:24:21;96388.59;;;11.95
40624;BMP280;26325;48.594;11.650;2022-09-09T05:26:48;96392.47;;;11.98
40624;BMP280;26325;48.594;11.650;2022-09-09T05:29:16;96388.38;;;12.01
40624;BMP280;26325;48.594;11.650;2022-09-09T05:31:47;96387.63;;;12.11
40624;BMP280;26325;48.594;11.650;2022-09-09T05:34:13;96386.63;;;12.17
40624;BMP280;26325;48.594;11.650;2022-09-09T05:36:38;96378.59;;;12.18
40624;BMP280;26325;48.594;11.650;2022-09-09T05:39:04;96383.00;;;12.22
40624;BMP280;26325;48.594;11.650;2022-09-09T05:41:30;96378.66;;;12.38
40624;BMP280;26325;48.594;11.650;2022-09-09T05:43:56;96377.91;;;12.47
40624;BMP280;26325;48.594;11.650;2022-09-09T05:46:24;96375.84;;;12.58
40624;BMP280;26325;48.594;11.650;2022-09-09T05:48:50;96369.97;;;12.73
40624;BMP280;26325;48.594;11.650;2022-09-09T05:51:21;96372.53;;;13.46
40624;BMP280;26325;48.594;11.650;2022-09-09T05:53:47;96380.44;;;14.17
40624;BMP280;26325;48.594;11.650;2022-09-09T05:56:15;96377.75;;;15.17
40624;BMP280;26325;48.594;11.650;2022-09-09T05:58:41;96377.78;;;15.72
40624;BMP280;26325;48.594;11.650;2022-09-09T06:01:14;96387.97;;;15.92
40624;BMP280;26325;48.594;11.650;2022-09-09T06:03:41;96382.03;;;16.73
40624;BMP280;26325;48.594;11.650;2022-09-09T06:06:10;96367.44;;;17.08
40624;BMP280;26325;48.594;11.650;2022-09-09T06:08:39;96363.28;;;16.89
40624;BMP280;26325;48.594;11.650;2022-09-09T06:11:07;96369.06;;;16.50
40624;BMP280;26325;48.594;11.650;2022-09-09T06:13:33;96367.88;;;16.20
40624;BMP280;26325;48.594;11.650;2022-09-09T06:15:59;96363.47;;;15.93
40624;BMP280;26325;48.594;11.650;2022-09-09T06:18:25;96373.09;;;15.69
40624;BMP280;26325;48.594;11.650;2022-09-09T06:23:20;96371.38;;;15.32
40624;BMP280;26325;48.594;11.650;2022-09-09T06:25:45;96370.53;;;15.09
40624;BMP280;26325;48.594;11.650;2022-09-09T06:28:11;96370.38;;;14.91
40624;BMP280;26325;48.594;11.650;2022-09-09T06:30:37;96375.34;;;14.87
40624;BMP280;26325;48.594;11.650;2022-09-09T06:33:02;96386.03;;;14.86
40624;BMP280;26325;48.594;11.650;2022-09-09T06:35:28;96377.72;;;14.84
40624;BMP280;26325;48.594;11.650;2022-09-09T06:37:54;96389.66;;;14.85
40624;BMP280;26325;48.594;11.650;2022-09-09T06:40:19;96390.44;;;14.86
40624;BMP280;26325;48.594;11.650;2022-09-09T06:42:47;96411.50;;;14.84
40624;BMP280;26325;48.594;11.650;2022-09-09T06:45:13;96424.81;;;14.78
40624;BMP280;26325;48.594;11.650;2022-09-09T06:47:38;96459.16;;;14.70
40624;BMP280;26325;48.594;11.650;2022-09-09T06:50:04;96455.50;;;14.76
40624;BMP280;26325;48.594;11.650;2022-09-09T06:52:31;96480.69;;;14.75
40624;BMP280;26325;48.594;11.650;2022-09-09T06:54:56;96484.59;;;14.73
40624;BMP280;26325;48.594;11.650;2022-09-09T06:57:23;96480.47;;;14.67
40624;BMP280;26325;48.594;11.650;2022-09-09T06:59:49;96492.44;;;14.68
40624;BMP280;26325;48.594;11.650;2022-09-09T07:02:14;96490.06;;;14.71
40624;BMP280;26325;48.594;11.650;2022-09-09T07:04:40;96485.88;;;14.80
40624;BMP280;26325;48.594;11.650;2022-09-09T07:07:08;96482.44;;;14.89
40624;BMP280;26325;48.594;11.650;2022-09-09T07:09:34;96473.06;;;14.98
40624;BMP280;26325;48.594;11.650;2022-09-09T07:12:00;96474.56;;;15.09
40624;BMP280;26325;48.594;11.650;2022-09-09T07:14:28;96489.09;;;15.15
40624;BMP280;26325;48.594;11.650;2022-09-09T07:16:53;96499.00;;;15.08
40624;BMP280;26325;48.594;11.650;2022-09-09T07:19:19;96496.75;;;14.97
40624;BMP280;26325;48.594;11.650;2022-09-09T07:21:44;96497.41;;;15.17
40624;BMP280;26325;48.594;11.650;2022-09-09T07:24:10;96504.69;;;15.15
40624;BMP280;26325;48.594;11.650;2022-09-09T07:26:37;96509.41;;;15.13
40624;BMP280;26325;48.594;11.650;2022-09-09T07:29:03;96507.34;;;15.10
40624;BMP280;26325;48.594;11.650;2022-09-09T07:31:31;96516.47;;;15.03
40624;BMP280;26325;48.594;11.650;2022-09-09T07:33:57;96513.31;;;15.10
40624;BMP280;26325;48.594;11.650;2022-09-09T07:36:27;96498.44;;;15.21
40624;BMP280;26325;48.594;11.650;2022-09-09T07:38:55;96497.84;;;15.28
40624;BMP280;26325;48.594;11.650;2022-09-09T07:43:50;96490.66;;;15.53
40624;BMP280;26325;48.594;11.650;2022-09-09T07:46:18;96501.63;;;15.78
40624;BMP280;26325;48.594;11.650;2022-09-09T07:48:45;96510.19;;;15.51
40624;BMP280;26325;48.594;11.650;2022-09-09T07:51:16;96508.66;;;15.45
40624;BMP280;26325;48.594;11.650;2022-09-09T07:53:43;96521.69;;;15.40
40624;BMP280;26325;48.594;11.650;2022-09-09T07:56:09;96524.28;;;15.40
40624;BMP280;26325;48.594;11.650;2022-09-09T07:58:38;96529.47;;;15.45
40624;BMP280;26325;48.594;11.650;2022-09-09T08:01:15;96529.69;;;15.48
40624;BMP280;26325;48.594;11.650;2022-09-09T08:03:45;96522.69;;;15.49
40624;BMP280;26325;48.594;11.650;2022-09-09T08:06:12;96520.69;;;15.36
40624;BMP280;26325;48.594;11.650;2022-09-09T08:08:39;96498.38;;;15.30
40624;BMP280;26325;48.594;11.650;2022-09-09T08:11:11;96494.94;;;15.40
40624;BMP280;26325;48.594;11.650;2022-09-09T08:13:38;96509.25;;;15.37
40624;BMP280;26325;48.594;11.650;2022-09-09T08:16:09;96487.34;;;15.43
40624;BMP280;26325;48.594;11.650;2022-09-09T08:18:37;96479.84;;;15.32
40624;BMP280;26325;48.594;11.650;2022-09-09T08:21:12;96469.19;;;15.33
40624;BMP280;26325;48.594;11.650;2022-09-09T08:23:41;96468.53;;;15.51
40624;BMP280;26325;48.594;11.650;2022-09-09T08:26:18;96465.06;;;15.65
40624;BMP280;26325;48.594;11.650;2022-09-09T08:28:52;96466.84;;;15.92
40624;BMP280;26325;48.594;11.650;2022-09-09T08:31:19;96466.53;;;16.03
40624;BMP280;26325;48.594;11.650;2022-09-09T08:33:46;96471.31;;;16.20
40624;BMP280;26325;48.594;11.650;2022-09-09T08:36:13;96468.94;;;16.23
40624;BMP280;26325;48.594;11.650;2022-09-09T08:38:41;96470.81;;;16.40
40624;BMP280;26325;48.594;11.650;2022-09-09T08:49:54;96504.19;;;16.84
40624;BMP280;26325;48.594;11.650;2022-09-09T08:57:39;96505.63;;;17.13
40624;BMP280;26325;48.594;11.650;2022-09-09T09:00:09;96514.06;;;17.28
40624;BMP280;26325;48.594;11.650;2022-09-09T09:05:36;96496.63;;;17.73
40624;BMP280;26325;48.594;11.650;2022-09-09T09:08:28;96496.47;;;18.01
40624;BMP280;26325;48.594;11.650;2022-09-09T09:10:56;96489.47;;;18.54
40624;BMP280;26325;48.594;11.650;2022-09-09T09:16:11;96475.97;;;20.88
40624;BMP280;26325;48.594;11.650;2022-09-09T09:18:39;96452.91;;;21.48
40624;BMP280;26325;48.594;11.650;2022-09-09T09:21:36;96455.78;;;21.96
40624;BMP280;26325;48.594;11.650;2022-09-09T09:24:02;96454.09;;;22.00
40624;BMP280;26325;48.594;11.650;2022-09-09T09:26:32;96457.81;;;21.82
40624;BMP280;26325;48.594;11.650;2022-09-09T09:28:58;96462.31;;;21.90
40624;BMP280;26325;48.594;11.650;2022-09-09T09:31:24;96463.72;;;21.30
40624;BMP280;26325;48.594;11.650;2022-09-09T09:33:56;96467.09;;;21.22
40624;BMP280;26325;48.594;11.650;2022-09-09T09:36:40;96471.75;;;21.75
40624;BMP280;26325;48.594;11.650;2022-09-09T09:39:06;96478.97;;;22.11
40624;BMP280;26325;48.594;11.650;2022-09-09T09:41:36;96476.53;;;22.51
40624;BMP280;26325;48.594;11.650;2022-09-09T09:44:04;96475.13;;;22.61
40624;BMP280;26325;48.594;11.650;2022-09-09T09:46:30;96478.91;;;22.72
40624;BMP280;26325;48.594;11.650;2022-09-09T09:49:04;96474.75;;;22.26
40624;BMP280;26325;48.594;11.650;2022-09-09T09:51:34;96485.50;;;21.55
40624;BMP280;26325;48.594;11.650;2022-09-09T09:54:27;96477.31;;;21.65
40624;BMP280;26325;48.594;11.650;2022-09-09T09:56:54;96474.22;;;21.63
40624;BMP280;26325;48.594;11.650;2022-09-09T10:01:54;96475.22;;;20.96
40624;BMP280;26325;48.594;11.650;2022-09-09T10:04:21;96486.59;;;21.38
40624;BMP280;26325;48.594;11.650;2022-09-09T10:06:50;96487.06;;;21.48
40624;BMP280;26325;48.594;11.650;2022-09-09T10:09:27;96479.72;;;20.57
40624;BMP280;26325;48.594;11.650;2022-09-09T10:17:39;96481.63;;;21.28
40624;BMP280;26325;48.594;11.650;2022-09-09T10:22:52;96481.59;;;20.65
40624;BMP280;26325;48.594;11.650;2022-09-09T10:31:51;96498.91;;;20.06
40624;BMP280;26325;48.594;11.650;2022-09-09T10:36:42;96485.56;;;20.24
40624;BMP280;26325;48.594;11.650;2022-09-09T10:55:20;96479.38;;;20.42
40624;BMP280;26325;48.594;11.650;2022-09-09T10:57:52;96485.22;;;20.77
40624;BMP280;26325;48.594;11.650;2022-09-09T11:00:36;96487.81;;;21.15
40624;BMP280;26325;48.594;11.650;2022-09-09T11:03:04;96477.44;;;21.18
40624;BMP280;26325;48.594;11.650;2022-09-09T11:05:44;96485.34;;;21.43
40624;BMP280;26325;48.594;11.650;2022-09-09T11:08:23;96477.91;;;21.62
40624;BMP280;26325;48.594;11.650;2022-09-09T11:14:09;96479.00;;;21.94
40624;BMP280;26325;48.594;11.650;2022-09-09T11:16:56;96472.38;;;21.88
40624;BMP280;26325;48.594;11.650;2022-09-09T11:24:54;96478.41;;;21.47
40624;BMP280;26325;48.594;11.650;2022-09-09T11:27:29;96463.22;;;21.61
40624;BMP280;26325;48.594;11.650;2022-09-09T11:33:04;96473.91;;;21.23
40624;BMP280;26325;48.594;11.650;2022-09-09T11:41:01;96474.09;;;22.29
40624;BMP280;26325;48.594;11.650;2022-09-09T11:43:40;96462.25;;;22.96
40624;BMP280;26325;48.594;11.650;2022-09-09T11:46:07;96461.22;;;23.09
40624;BMP280;26325;48.594;11.650;2022-09-09T11:48:41;96458.94;;;22.99
40624;BMP280;26325;48.594;11.650;2022-09-09T11:53:49;96467.53;;;22.52
40624;BMP280;26325;48.594;11.650;2022-09-09T11:56:42;96458.56;;;22.52
40624;BMP280;26325;48.594;11.650;2022-09-09T11:59:25;96467.19;;;22.16
40624;BMP280;26325;48.594;11.650;2022-09-09T12:01:58;96466.59;;;22.03
40624;BMP280;26325;48.594;11.650;2022-09-09T12:07:22;96460.56;;;22.11
40624;BMP280;26325;48.594;11.650;2022-09-09T12:09:59;96460.56;;;21.86
40624;BMP280;26325;48.594;11.650;2022-09-09T12:12:37;96459.69;;;21.74
40624;BMP280;26325;48.594;11.650;2022-09-09T12:15:25;96462.63;;;21.47
40624;BMP280;26325;48.594;11.650;2022-09-09T12:17:54;96462.13;;;21.78
40624;BMP280;26325;48.594;11.650;2022-09-09T12:23:27;96455.97;;;21.83
40624;BMP280;26325;48.594;11.650;2022-09-09T12:33:20;96431.97;;;23.82
40624;BMP280;26325;48.594;11.650;2022-09-09T12:35:57;96441.41;;;23.83
40624;BMP280;26325;48.594;11.650;2022-09-09T12:38:36;96446.28;;;23.41
40624;BMP280;26325;48.594;11.650;2022-09-09T12:41:02;96437.88;;;23.79
40624;BMP280;26325;48.594;11.650;2022-09-09T12:43:28;96435.81;;;22.85
40624;BMP280;26325;48.594;11.650;2022-09-09T12:46:02;96432.53;;;23.56
40624;BMP280;26325;48.594;11.650;2022-09-09T12:48:40;96424.28;;;24.21
40624;BMP280;26325;48.594;11.650;2022-09-09T12:51:24;96421.59;;;24.76
40624;BMP280;26325;48.594;11.650;2022-09-09T12:53:51;96425.28;;;24.40
40624;BMP280;26325;48.594;11.650;2022-09-09T12:56:21;96411.72;;;25.23
40624;BMP280;26325;48.594;11.650;2022-09-09T12:58:50;96407.69;;;25.02
40624;BMP280;26325;48.594;11.650;2022-09-09T13:01:28;96412.13;;;24.63
40624;BMP280;26325;48.594;11.650;2022-09-09T13:03:54;96396.94;;;24.60
40624;BMP280;26325;48.594;11.650;2022-09-09T13:06:22;96396.25;;;24.28
40624;BMP280;26325;48.594;11.650;2022-09-09T13:08:49;96399.84;;;23.68
40624;BMP280;26325;48.594;11.650;2022-09-09T13:11:18;96387.03;;;23.47
40624;BMP280;26325;48.594;11.650;2022-09-09T13:13:50;96390.16;;;23.41
40624;BMP280;26325;48.594;11.650;2022-09-09T13:16:22;96380.06;;;23.74
40624;BMP280;26325;48.594;11.650;2022-09-09T13:18:48;96390.53;;;23.71
40624;BMP280;26325;48.594;11.650;2022-09-09T13:21:14;96384.13;;;24.04
40624;BMP280;26325;48.594;11.650;2022-09-09T13:23:42;96381.72;;;24.10
40624;BMP280;26325;48.594;11.650;2022-09-09T13:26:23;96380.56;;;24.66
40624;BMP280;26325;48.594;11.650;2022-09-09T13:28:49;96365.81;;;24.65
40624;BMP280;26325;48.594;11.650;2022-09-09T13:31:24;96372.28;;;24.80
40624;BMP280;26325;48.594;11.650;2022-09-09T13:33:52;96380.59;;;25.17
40624;BMP280;26325;48.594;11.650;2022-09-09T13:36:30;96372.16;;;25.38
40624;BMP280;26325;48.594;11.650;2022-09-09T13:38:57;96372.34;;;25.06
40624;BMP280;26325;48.594;11.650;2022-09-09T13:44:02;96350.06;;;24.10
40624;BMP280;26325;48.594;11.650;2022-09-09T13:46:37;96348.31;;;24.26
40624;BMP280;26325;48.594;11.650;2022-09-09T13:54:09;96344.78;;;24.81
40624;BMP280;26325;48.594;11.650;2022-09-09T13:56:36;96339.13;;;25.44
40624;BMP280;26325;48.594;11.650;2022-09-09T13:59:03;96340.03;;;25.24
40624;BMP280;26325;48.594;11.650;2022-09-09T14:01:28;96338.34;;;24.66
40624;BMP280;26325;48.594;11.650;2022-09-09T14:03:55;96337.31;;;24.71
40624;BMP280;26325;48.594;11.650;2022-09-09T14:06:21;96326.44;;;24.49
40624;BMP280;26325;48.594;11.650;2022-09-09T14:08:50;96322.69;;;24.73
40624;BMP280;26325;48.594;11.650;2022-09-09T14:11:16;96320.06;;;24.62
40624;BMP280;26325;48.594;11.650;2022-09-09T14:13:42;96318.66;;;24.41
40624;BMP280;26325;48.594;11.650;2022-09-09T14:16:07;96326.75;;;24.71
40624;BMP280;26325;48.594;11.650;2022-09-09T14:18:32;96323.66;;;25.19
40624;BMP280;26325;48.594;11.650;2022-09-09T14:20:59;96321.06;;;25.46
40624;BMP280;26325;48.594;11.650;2022-09-09T14:23:24;96323.41;;;24.97
40624;BMP280;26325;48.594;11.650;2022-09-09T14:25:50;96328.75;;;24.50
40624;BMP280;26325;48.594;11.650;2022-09-09T14:28:18;96336.56;;;24.35
40624;BMP280;26325;48.594;11.650;2022-09-09T14:30:44;96350.31;;;24.29
40624;BMP280;26325;48.594;11.650;2022-09-09T14:33:11;96347.66;;;23.62
40624;BMP280;26325;48.594;11.650;2022-09-09T14:35:37;96357.78;;;23.20
40624;BMP280;26325;48.594;11.650;2022-09-09T14:38:04;96351.72;;;22.88
40624;BMP280;26325;48.594;11.650;2022-09-09T14:40:29;96352.84;;;22.59
40624;BMP280;26325;48.594;11.650;2022-09-09T14:42:55;96362.44;;;22.27
40624;BMP280;26325;48.594;11.650;2022-09-09T14:45:22;96368.72;;;21.97
40624;BMP280;26325;48.594;11.650;2022-09-09T14:47:49;96371.16;;;21.57
40624;BMP280;26325;48.594;11.650;2022-09-09T14:50:14;96378.59;;;21.39
40624;BMP280;26325;48.594;11.650;2022-09-09T14:52:40;96370.41;;;21.24
40624;BMP280;26325;48.594;11.650;2022-09-09T14:55:06;96371.63;;;21.18
40624;BMP280;26325;48.594;11.650;2022-09-09T14:57:32;96372.56;;;21.05
40624;BMP280;26325;48.594;11.650;2022-09-09T14:59:57;96362.06;;;20.89
40624;BMP280;26325;48.594;11.650;2022-09-09T15:02:23;96364.19;;;20.87
40624;BMP280;26325;48.594;11.650;2022-09-09T15:04:48;96365.28;;;20.86
40624;BMP280;26325;48.594;11.650;2022-09-09T15:07:18;96371.59;;;20.85
40624;BMP280;26325;48.594;11.650;2022-09-09T15:09:44;96370.06;;;20.84
40624;BMP280;26325;48.594;11.650;2022-09-09T15:12:10;96375.59;;;20.74
40624;BMP280;26325;48.594;11.650;2022-09-09T15:14:35;96371.75;;;20.72
40624;BMP280;26325;48.594;11.650;2022-09-09T15:17:01;96372.66;;;20.59
40624;BMP280;26325;48.594;11.650;2022-09-09T15:19:26;96370.78;;;20.51
40624;BMP280;26325;48.594;11.650;2022-09-09T15:21:57;96377.53;;;20.36
40624;BMP280;26325;48.594;11.650;2022-09-09T15:24:24;96375.00;;;20.31
40624;BMP280;26325;48.594;11.650;2022-09-09T15:27:14;96380.19;;;20.14
40624;BMP280;26325;48.594;11.650;2022-09-09T15:29:40;96373.25;;;20.10
40624;BMP280;26325;48.594;11.650;2022-09-09T15:32:06;96370.56;;;19.93
40624;BMP280;26325;48.594;11.650;2022-09-09T15:34:32;96367.25;;;19.80
40624;BMP280;26325;48.594;11.650;2022-09-09T15:36:57;96368.13;;;19.67
40624;BMP280;26325;48.594;11.650;2022-09-09T15:39:27;96356.84;;;19.58
40624;BMP280;26325;48.594;11.650;2022-09-09T15:41:52;96362.16;;;19.53
40624;BMP280;26325;48.594;11.650;2022-09-09T15:44:18;96369.19;;;19.45
40624;BMP280;26325;48.594;11.650;2022-09-09T15:46:51;96365.13;;;18.96
40624;BMP280;26325;48.594;11.650;2022-09-09T15:49:25;96338.75;;;18.71
40624;BMP280;26325;48.594;11.650;2022-09-09T15:51:58;96326.44;;;18.71
40624;BMP280;26325;48.594;11.650;2022-09-09T15:54:26;96328.00;;;18.72
40624;BMP280;26325;48.594;11.650;2022-09-09T15:56:54;96318.88;;;18.83
40624;BMP280;26325;48.594;11.650;2022-09-09T15:59:21;96323.84;;;18.93
40624;BMP280;26325;48.594;11.650;2022-09-09T16:01:47;96328.41;;;19.01
40624;BMP280;26325;48.594;11.650;2022-09-09T16:04:15;96321.63;;;19.00
40624;BMP280;26325;48.594;11.650;2022-09-09T16:06:45;96318.63;;;19.14
40624;BMP280;26325;48.594;11.650;2022-09-09T16:09:10;96325.13;;;19.17
40624;BMP280;26325;48.594;11.650;2022-09-09T16:11:37;96329.94;;;19.23
40624;BMP280;26325;48.594;11.650;2022-09-09T16:14:04;96331.72;;;19.14
40624;BMP280;26325;48.594;11.650;2022-09-09T16:16:30;96346.00;;;19.08
40624;BMP280;26325;48.594;11.650;2022-09-09T16:18:58;96345.53;;;19.07
40624;BMP280;26325;48.594;11.650;2022-09-09T16:21:29;96339.09;;;18.91
40624;BMP280;26325;48.594;11.650;2022-09-09T16:23:55;96353.56;;;18.62
40624;BMP280;26325;48.594;11.650;2022-09-09T16:26:22;96349.53;;;18.43
40624;BMP280;26325;48.594;11.650;2022-09-09T16:28:50;96346.06;;;18.34
40624;BMP280;26325;48.594;11.650;2022-09-09T16:31:20;96352.47;;;18.15